Terminal Aerodrome Forecast
Issued by NWS

Home | Current Version | Previous Version | Text Only | Print | Product List | Glossary On
Versions: 1 2 3 4 5 6 7 8 9 10 11 12 13 14 15
000
FTUS41 KPBZ 222329
TAFFKL
TAF
KFKL 222329Z 2300/2324 23008KT P6SM OVC030
     FM230300 20005KT P6SM BKN015
     FM230600 20003KT P6SM OVC006
     FM231300 22009KT P6SM VCSH BKN008
     FM232000 24008KT P6SM BKN020
      AMD LTD TO CLD VIS AND WIND=

USA.gov is the U.S. government's official web portal to all federal, state and local government web resources and services.